Weather at Al Dhafra Air Base

Public forecast

Using degrees Celsius for public forecast. Weather courtesy of forecast.io.

Closest aviation weather report (METAR) to Al Dhafra Air Base

Closest report is Al Bateen Executive Airport, 11.9 nm (22.0 km) NNW.

2024/07/17 13:00 (retrieved 1 hour ago)

OMAD 171300Z 34010KT 8000 NSC 38/30 Q0995 NOSIG

Closest aviation forecast (TAF) to Al Dhafra Air Base

Closest forecast is Al Bateen Executive Airport, 11.9 nm (22.0 km) NNW.

2024/07/17 12:00 (retrieved 2 hours ago)

TAF OMAD 171100Z 1712/1818 33012KT 8000 NSC BECMG 1718/1720 VRB02KT PROB30 1723/1804 4000 HZ BKN010 BECMG 1808/1810 32010KT